createdAt,value
2022-10-20T00:01:21.986Z,2.27
2022-10-20T00:03:51.219Z,2.17
2022-10-20T00:06:23.179Z,1.60
2022-10-20T00:08:52.087Z,2.33
2022-10-20T00:11:21.872Z,1.90
2022-10-20T00:13:53.757Z,1.70
2022-10-20T00:16:22.927Z,1.90
2022-10-20T00:18:51.249Z,1.63
2022-10-20T00:21:21.949Z,2.30
2022-10-20T00:23:50.746Z,2.07
2022-10-20T00:26:22.545Z,1.80
2022-10-20T00:28:53.053Z,2.10
2022-10-20T00:31:22.071Z,1.97
2022-10-20T00:33:50.429Z,1.67
2022-10-20T00:36:20.388Z,1.60
2022-10-20T00:38:48.775Z,1.40
2022-10-20T00:41:19.696Z,1.77
2022-10-20T00:43:50.874Z,2.20
2022-10-20T00:46:22.800Z,1.83
2022-10-20T00:48:54.918Z,1.67
2022-10-20T00:51:25.954Z,1.50
2022-10-20T00:54:00.352Z,2.00
2022-10-20T00:56:28.669Z,1.60
2022-10-20T00:58:57.204Z,1.97
2022-10-20T01:01:26.805Z,1.97
2022-10-20T01:03:55.165Z,1.57
2022-10-20T01:06:24.161Z,1.60
2022-10-20T01:08:53.800Z,1.83
2022-10-20T01:11:33.079Z,1.50
2022-10-20T01:14:19.773Z,1.60
2022-10-20T01:16:59.338Z,2.10
2022-10-20T01:20:02.370Z,1.80
2022-10-20T01:23:02.958Z,1.73
2022-10-20T01:25:47.073Z,1.50
2022-10-20T01:28:22.449Z,1.40
2022-10-20T01:30:57.673Z,1.50
2022-10-20T01:33:36.850Z,1.90
2022-10-20T01:36:12.506Z,1.80
2022-10-20T01:38:43.891Z,1.53
2022-10-20T01:41:15.553Z,1.80
2022-10-20T01:43:48.276Z,1.73
2022-10-20T01:46:18.925Z,1.70
2022-10-20T01:48:48.579Z,1.90
2022-10-20T01:51:16.843Z,1.90
2022-10-20T01:53:45.040Z,1.77
2022-10-20T01:56:19.079Z,1.73
2022-10-20T01:59:27.823Z,1.80
2022-10-20T02:02:17.805Z,1.63
2022-10-20T02:05:00.381Z,1.73
2022-10-20T02:07:31.205Z,1.90
2022-10-20T02:10:06.736Z,1.73
2022-10-20T02:12:39.938Z,1.67
2022-10-20T02:15:11.642Z,2.20
2022-10-20T02:17:41.900Z,1.73
2022-10-20T02:20:11.307Z,1.87
2022-10-20T02:22:41.100Z,2.13
2022-10-20T02:25:12.771Z,1.80
2022-10-20T02:27:45.784Z,2.00
2022-10-20T02:30:18.343Z,1.30
2022-10-20T02:32:52.475Z,1.70
2022-10-20T02:35:22.827Z,1.47
2022-10-20T02:37:51.043Z,1.70
2022-10-20T02:40:19.460Z,1.93
2022-10-20T02:42:47.653Z,1.73
2022-10-20T02:45:17.436Z,1.90
2022-10-20T02:47:45.805Z,2.00
2022-10-20T02:50:14.172Z,2.13
2022-10-20T02:52:42.481Z,1.60
2022-10-20T02:55:11.005Z,2.00
2022-10-20T02:57:39.547Z,2.17
2022-10-20T03:00:09.907Z,1.73
2022-10-20T03:02:39.505Z,1.90
2022-10-20T03:05:08.328Z,1.97
2022-10-20T03:07:36.802Z,1.80
2022-10-20T03:10:05.767Z,1.60
2022-10-20T03:12:34.252Z,1.67
2022-10-20T03:15:02.772Z,1.83
2022-10-20T03:17:30.918Z,1.80
2022-10-20T03:20:00.476Z,1.80
2022-10-20T03:24:57.818Z,1.73
2022-10-20T03:27:26.020Z,1.73
2022-10-20T03:29:54.232Z,1.90
2022-10-20T03:32:22.439Z,1.83
2022-10-20T03:34:50.589Z,1.63
2022-10-20T03:37:20.182Z,1.80
2022-10-20T03:39:48.428Z,1.70
2022-10-20T03:42:16.705Z,1.50
2022-10-20T03:44:46.025Z,2.00
2022-10-20T03:47:14.773Z,2.33
2022-10-20T03:49:43.213Z,1.83
2022-10-20T03:52:11.455Z,2.00
2022-10-20T03:54:42.736Z,1.80
2022-10-20T03:57:11.066Z,1.63
2022-10-20T03:59:39.239Z,2.13
2022-10-20T04:02:07.608Z,2.10
2022-10-20T04:04:35.892Z,2.20
2022-10-20T04:07:04.085Z,2.33
2022-10-20T04:09:32.273Z,2.00
2022-10-20T04:12:01.870Z,1.90
2022-10-20T04:14:30.206Z,2.70
2022-10-20T04:16:58.402Z,1.83
2022-10-20T04:19:26.620Z,1.90
2022-10-20T04:21:54.790Z,2.00
2022-10-20T04:24:22.964Z,1.87
2022-10-20T04:26:51.241Z,3.10
2022-10-20T04:29:20.841Z,2.20
2022-10-20T04:31:49.335Z,2.03
2022-10-20T04:34:17.710Z,2.00
2022-10-20T04:36:45.887Z,1.83
2022-10-20T04:39:15.379Z,1.80
2022-10-20T04:41:43.567Z,1.80
2022-10-20T04:44:11.798Z,2.30
2022-10-20T04:46:41.419Z,1.57
2022-10-20T04:49:09.693Z,2.27
2022-10-20T04:51:37.945Z,2.03
2022-10-20T04:56:39.307Z,1.70
2022-10-20T04:59:09.706Z,1.67
2022-10-20T05:01:42.373Z,2.07
2022-10-20T05:04:11.610Z,1.90
2022-10-20T05:06:40.038Z,1.97
2022-10-20T05:09:08.663Z,1.50
2022-10-20T05:11:37.947Z,2.13
2022-10-20T05:14:06.166Z,1.93
2022-10-20T05:16:34.472Z,2.17
2022-10-20T05:19:04.138Z,1.77
2022-10-20T05:21:32.733Z,2.13
2022-10-20T05:24:02.818Z,1.53
2022-10-20T05:26:34.949Z,1.70
2022-10-20T05:29:05.253Z,1.70
2022-10-20T05:31:37.461Z,1.60
2022-10-20T05:34:07.049Z,1.63
2022-10-20T05:36:35.433Z,1.60
2022-10-20T05:39:04.468Z,1.33
2022-10-20T05:41:37.859Z,1.47
2022-10-20T05:44:09.745Z,1.57
2022-10-20T05:46:41.398Z,1.60
2022-10-20T05:49:15.738Z,1.83
2022-10-20T05:51:44.895Z,1.53
2022-10-20T05:54:14.296Z,1.60
2022-10-20T05:56:43.107Z,1.47
2022-10-20T05:59:12.038Z,1.43
2022-10-20T06:01:48.196Z,1.33
2022-10-20T06:04:23.416Z,1.47
2022-10-20T06:06:52.000Z,1.20
2022-10-20T06:09:20.938Z,1.77
2022-10-20T06:11:49.267Z,2.03
2022-10-20T06:14:18.410Z,1.37
2022-10-20T06:16:47.148Z,1.30
2022-10-20T06:19:15.331Z,1.50
2022-10-20T06:21:44.981Z,1.40
2022-10-20T06:24:13.576Z,1.67
2022-10-20T06:26:41.955Z,1.50
2022-10-20T06:29:13.085Z,1.27
2022-10-20T06:31:42.697Z,2.03
2022-10-20T06:34:14.425Z,1.40
2022-10-20T06:36:45.639Z,1.33
2022-10-20T06:39:15.778Z,1.37
2022-10-20T06:41:43.989Z,1.50
2022-10-20T06:44:12.729Z,1.53
2022-10-20T06:46:40.950Z,1.03
2022-10-20T06:49:09.399Z,1.13
2022-10-20T06:51:37.910Z,1.30
2022-10-20T06:54:15.910Z,1.50
2022-10-20T06:56:44.090Z,1.57
2022-10-20T06:59:12.283Z,1.20
2022-10-20T07:01:41.047Z,1.47
2022-10-20T07:04:14.536Z,1.13
2022-10-20T07:06:44.484Z,1.70
2022-10-20T07:09:16.416Z,1.40
2022-10-20T07:11:45.320Z,1.70
2022-10-20T07:14:14.613Z,1.50
2022-10-20T07:16:43.143Z,1.40
2022-10-20T07:19:11.905Z,2.03
2022-10-20T07:21:42.919Z,1.90
2022-10-20T07:24:14.226Z,1.50
2022-10-20T07:26:43.302Z,1.60
2022-10-20T07:29:13.081Z,1.47
2022-10-20T07:31:42.784Z,1.50
2022-10-20T07:34:24.481Z,1.47
2022-10-20T07:36:54.487Z,1.20
2022-10-20T07:39:24.733Z,1.40
2022-10-20T07:41:53.028Z,1.27
2022-10-20T07:44:21.876Z,1.30
2022-10-20T07:46:58.321Z,1.40
2022-10-20T07:49:47.942Z,1.10
2022-10-20T07:52:22.788Z,1.23
2022-10-20T07:54:58.014Z,1.10
2022-10-20T07:57:40.563Z,1.00
2022-10-20T08:00:10.093Z,1.47
2022-10-20T08:02:41.809Z,1.10
2022-10-20T08:05:10.832Z,1.20
2022-10-20T08:07:39.054Z,1.13
2022-10-20T08:10:09.443Z,1.20
2022-10-20T08:12:38.643Z,1.13
2022-10-20T08:15:20.937Z,1.30
2022-10-20T08:17:49.136Z,1.20
2022-10-20T08:20:27.139Z,1.30
2022-10-20T08:22:55.644Z,1.03
2022-10-20T08:25:25.798Z,1.07
2022-10-20T08:27:54.070Z,1.33
2022-10-20T08:30:24.158Z,1.60
2022-10-20T08:32:53.270Z,1.23
2022-10-20T08:35:21.900Z,1.50
2022-10-20T08:37:50.130Z,1.27
2022-10-20T08:40:21.678Z,1.10
2022-10-20T08:42:52.218Z,1.40
2022-10-20T08:45:40.969Z,1.37
2022-10-20T08:48:17.955Z,1.70
2022-10-20T08:50:48.838Z,1.87
2022-10-20T08:53:18.598Z,1.10
2022-10-20T08:55:47.341Z,1.63
2022-10-20T08:58:19.956Z,1.30
2022-10-20T09:00:49.811Z,1.30
2022-10-20T09:03:21.988Z,1.07
2022-10-20T09:05:56.674Z,1.20
2022-10-20T09:08:30.493Z,1.17
2022-10-20T09:10:59.380Z,1.00
2022-10-20T09:13:31.006Z,1.10
2022-10-20T09:16:03.812Z,1.07
2022-10-20T09:18:32.252Z,1.07
2022-10-20T09:21:04.006Z,1.03
2022-10-20T09:23:42.418Z,1.20
2022-10-20T09:26:30.386Z,2.17
2022-10-20T09:29:16.046Z,1.13
2022-10-20T09:31:46.451Z,1.67
2022-10-20T09:34:25.416Z,1.10
2022-10-20T09:36:59.224Z,1.60
2022-10-20T09:39:30.004Z,1.40
2022-10-20T09:42:03.856Z,1.23
2022-10-20T09:44:40.738Z,1.53
2022-10-20T09:47:15.844Z,1.33
2022-10-20T09:49:46.207Z,1.10
2022-10-20T09:52:23.642Z,1.20
2022-10-20T09:54:52.540Z,1.47
2022-10-20T09:57:23.338Z,1.47
2022-10-20T09:59:54.738Z,1.40
2022-10-20T10:02:33.782Z,1.40
2022-10-20T10:05:19.577Z,1.30
2022-10-20T10:07:58.853Z,1.10
2022-10-20T10:10:29.822Z,1.07
2022-10-20T10:13:00.894Z,1.23
2022-10-20T10:15:33.439Z,1.10
2022-10-20T10:18:12.728Z,1.67
2022-10-20T10:20:41.927Z,1.40
2022-10-20T10:23:23.236Z,1.20
2022-10-20T10:25:52.440Z,1.30
2022-10-20T10:28:33.988Z,1.40
2022-10-20T10:31:22.977Z,0.93
2022-10-20T10:33:54.767Z,1.23
2022-10-20T10:36:32.292Z,1.23
2022-10-20T10:39:01.130Z,1.37
2022-10-20T10:41:48.398Z,1.10
2022-10-20T10:44:25.552Z,1.50
2022-10-20T10:47:04.101Z,1.27
2022-10-20T10:49:45.574Z,1.23
2022-10-20T10:52:30.449Z,1.40
2022-10-20T10:55:07.009Z,1.37
2022-10-20T10:57:47.036Z,1.17
2022-10-20T11:00:22.798Z,1.30
2022-10-20T11:03:02.061Z,1.30
2022-10-20T11:05:55.254Z,1.90
2022-10-20T11:08:46.396Z,1.23
2022-10-20T11:11:25.278Z,1.10
2022-10-20T11:14:08.464Z,1.03
2022-10-20T11:16:41.492Z,1.20
2022-10-20T11:19:48.476Z,1.37
2022-10-20T11:22:29.891Z,1.20
2022-10-20T11:25:06.539Z,0.97
2022-10-20T11:27:38.097Z,2.07
2022-10-20T11:30:18.273Z,1.20
2022-10-20T11:32:53.953Z,1.30
2022-10-20T11:35:32.821Z,1.30
2022-10-20T11:38:16.225Z,1.30
2022-10-20T11:40:50.239Z,1.40
2022-10-20T11:43:21.950Z,1.00
2022-10-20T11:45:55.824Z,1.30
2022-10-20T11:48:27.938Z,1.50
2022-10-20T11:51:08.726Z,0.93
2022-10-20T11:53:48.943Z,1.40
2022-10-20T11:56:43.700Z,1.33
2022-10-20T11:59:40.080Z,1.50
2022-10-20T12:02:53.685Z,1.50
2022-10-20T12:05:49.765Z,1.57
2022-10-20T12:08:45.201Z,1.30
2022-10-20T12:25:51.476Z,1.65
2022-10-20T12:28:42.963Z,1.60
2022-10-20T12:31:11.447Z,1.47
2022-10-20T12:33:43.009Z,1.33
2022-10-20T12:36:29.655Z,1.30
2022-10-20T12:39:17.128Z,1.70
2022-10-20T12:41:58.092Z,1.50
2022-10-20T12:44:28.909Z,1.47
2022-10-20T12:47:00.554Z,1.52
2022-10-20T12:49:33.306Z,1.42
2022-10-20T12:52:03.626Z,1.80
2022-10-20T12:54:36.359Z,1.35
2022-10-20T12:57:26.332Z,1.60
2022-10-20T12:59:55.245Z,1.77
2022-10-20T13:02:48.348Z,1.20
2022-10-20T13:05:48.638Z,1.30
2022-10-20T13:08:32.862Z,1.17
2022-10-20T13:11:50.047Z,1.30
2022-10-20T13:14:47.128Z,1.30
2022-10-20T13:17:23.056Z,2.50
2022-10-20T13:20:01.322Z,1.70
2022-10-20T13:22:39.632Z,1.73
2022-10-20T13:25:15.875Z,1.47
2022-10-20T13:27:44.131Z,1.43
2022-10-20T13:30:22.005Z,1.20
2022-10-20T13:33:17.900Z,1.67
2022-10-20T13:36:00.162Z,1.38
2022-10-20T13:38:37.078Z,1.60
2022-10-20T13:41:12.230Z,1.40
2022-10-20T13:43:57.443Z,1.70
2022-10-20T13:46:47.733Z,5.13
2022-10-20T13:49:31.069Z,2.20
2022-10-20T13:52:04.765Z,2.47
2022-10-20T13:54:36.961Z,1.80
2022-10-20T13:57:09.122Z,1.90
2022-10-20T13:59:39.514Z,1.37
2022-10-20T14:02:26.407Z,1.97
2022-10-20T14:05:05.450Z,1.70
2022-10-20T14:07:38.384Z,1.90
2022-10-20T14:10:07.527Z,1.67
2022-10-20T14:12:36.334Z,1.50
2022-10-20T14:15:07.625Z,1.40
2022-10-20T14:17:40.728Z,1.33
2022-10-20T14:20:23.315Z,1.50
2022-10-20T14:22:53.633Z,1.73
2022-10-20T14:25:22.327Z,2.37
2022-10-20T14:27:53.556Z,2.73
2022-10-20T14:30:22.369Z,1.77
2022-10-20T14:32:52.538Z,2.00
2022-10-20T14:35:32.621Z,1.80
2022-10-20T14:38:04.322Z,1.57
2022-10-20T14:40:35.188Z,1.83
2022-10-20T14:43:07.516Z,2.03
2022-10-20T14:45:35.846Z,2.00
2022-10-20T14:48:13.979Z,1.73
2022-10-20T14:50:42.267Z,1.40
2022-10-20T14:53:28.888Z,1.70
2022-10-20T14:55:58.841Z,1.90
2022-10-20T14:58:37.334Z,1.97
2022-10-20T15:01:23.542Z,1.53
2022-10-20T15:04:18.211Z,2.43
2022-10-20T15:06:46.670Z,1.43
2022-10-20T15:09:31.242Z,1.73
2022-10-20T15:11:59.845Z,2.00
2022-10-20T15:14:28.422Z,1.83
2022-10-20T15:16:56.672Z,2.17
2022-10-20T15:19:34.120Z,2.23
2022-10-20T15:22:10.363Z,2.10
2022-10-20T15:24:39.031Z,2.07
2022-10-20T15:27:08.082Z,2.50
2022-10-20T15:29:36.338Z,1.97
2022-10-20T15:32:04.676Z,2.60
2022-10-20T15:34:34.279Z,2.43
2022-10-20T15:37:02.530Z,2.63
2022-10-20T15:39:30.836Z,3.17
2022-10-20T15:41:59.170Z,2.67
2022-10-20T15:44:27.652Z,2.50
2022-10-20T15:46:55.959Z,2.20
2022-10-20T15:49:24.385Z,2.53
2022-10-20T15:51:54.066Z,2.60
2022-10-20T15:54:23.687Z,2.20
2022-10-20T15:56:52.104Z,2.40
2022-10-20T15:59:20.472Z,2.13
2022-10-20T16:01:49.014Z,2.50
2022-10-20T16:04:19.660Z,2.67
2022-10-20T16:06:48.008Z,2.47
2022-10-20T16:09:17.696Z,2.50
2022-10-20T16:11:48.952Z,2.90
2022-10-20T16:14:17.290Z,2.50
2022-10-20T16:16:45.982Z,2.97
2022-10-20T16:19:14.264Z,2.20
2022-10-20T16:21:45.337Z,2.33
2022-10-20T16:24:13.617Z,2.70
2022-10-20T16:26:43.269Z,2.63
2022-10-20T16:29:11.533Z,1.90
2022-10-20T16:31:39.778Z,2.47
2022-10-20T16:34:08.028Z,1.97
2022-10-20T16:36:36.264Z,1.80
2022-10-20T16:39:04.532Z,2.50
2022-10-20T16:41:32.775Z,2.17
2022-10-20T16:44:02.416Z,2.10
2022-10-20T16:46:30.761Z,2.27
2022-10-20T16:48:59.117Z,2.47
2022-10-20T16:51:27.483Z,2.30
2022-10-20T16:54:00.754Z,2.20
2022-10-20T16:56:31.397Z,2.57
2022-10-20T16:59:01.975Z,2.80
2022-10-20T17:01:30.864Z,2.83
2022-10-20T17:03:59.148Z,2.60
2022-10-20T17:06:28.182Z,3.07
2022-10-20T17:08:59.007Z,2.60
2022-10-20T17:11:29.333Z,2.67
2022-10-20T17:13:58.417Z,3.23
2022-10-20T17:16:30.334Z,2.80
2022-10-20T17:19:00.042Z,2.93
2022-10-20T17:21:29.424Z,3.03
2022-10-20T17:23:57.835Z,2.50
2022-10-20T17:26:27.901Z,2.90
2022-10-20T17:28:58.040Z,2.03
2022-10-20T17:31:28.331Z,3.03
2022-10-20T17:33:58.224Z,2.37
2022-10-20T17:36:28.536Z,2.10
2022-10-20T17:38:59.240Z,3.10
2022-10-20T17:41:27.714Z,2.57
2022-10-20T17:43:56.039Z,2.53
2022-10-20T17:46:24.395Z,1.73
2022-10-20T17:48:54.010Z,2.80
2022-10-20T17:51:23.670Z,3.23
2022-10-20T17:53:53.778Z,4.73
2022-10-20T17:56:23.867Z,4.20
2022-10-20T17:58:53.282Z,3.50
2022-10-20T18:01:23.281Z,3.30
2022-10-20T18:04:03.052Z,2.87
2022-10-20T18:06:34.478Z,2.47
2022-10-20T18:09:05.897Z,3.00
2022-10-20T18:11:35.972Z,2.73
2022-10-20T18:14:05.457Z,2.60
2022-10-20T18:16:35.263Z,2.90
2022-10-20T18:19:05.597Z,3.27
2022-10-20T18:21:34.527Z,2.57
2022-10-20T18:24:05.113Z,2.37
2022-10-20T18:26:35.497Z,2.47
2022-10-20T18:29:05.282Z,2.63
2022-10-20T18:31:35.075Z,3.10
2022-10-20T18:34:07.356Z,2.47
2022-10-20T18:36:39.324Z,2.63
2022-10-20T18:39:11.786Z,2.63
2022-10-20T18:41:43.008Z,2.20
2022-10-20T18:44:13.757Z,2.83
2022-10-20T18:46:42.702Z,3.20
2022-10-20T18:49:14.320Z,3.07
2022-10-20T18:51:43.316Z,2.80
2022-10-20T18:54:12.535Z,2.50
2022-10-20T18:56:41.157Z,2.60
2022-10-20T18:59:12.104Z,2.80
2022-10-20T19:01:41.715Z,2.40
2022-10-20T19:04:12.851Z,2.50
2022-10-20T19:06:42.776Z,3.23
2022-10-20T19:09:14.515Z,2.80
2022-10-20T19:11:43.318Z,2.80
2022-10-20T19:14:12.643Z,2.50
2022-10-20T19:16:42.574Z,2.90
2022-10-20T19:19:12.260Z,2.80
2022-10-20T19:21:40.900Z,2.90
2022-10-20T19:24:12.579Z,2.90
2022-10-20T19:26:42.516Z,3.00
2022-10-20T19:29:13.242Z,2.57
2022-10-20T19:31:43.260Z,3.07
2022-10-20T19:34:15.424Z,2.33
2022-10-20T19:36:46.607Z,3.10
2022-10-20T19:39:17.130Z,2.03
2022-10-20T19:41:45.766Z,2.67
2022-10-20T19:44:15.549Z,1.87
2022-10-20T19:46:44.005Z,2.37
2022-10-20T19:49:14.120Z,2.10
2022-10-20T19:51:42.571Z,2.00
2022-10-20T19:54:11.594Z,2.20
2022-10-20T19:56:40.669Z,1.70
2022-10-20T19:59:09.106Z,1.60
2022-10-20T20:01:38.211Z,1.67
2022-10-20T20:04:07.433Z,1.97
2022-10-20T20:06:37.129Z,1.87
2022-10-20T20:09:08.489Z,1.70
2022-10-20T20:11:37.807Z,1.67
2022-10-20T20:14:10.283Z,1.37
2022-10-20T20:16:38.763Z,1.50
2022-10-20T20:19:10.545Z,1.27
2022-10-20T20:21:40.377Z,1.43
2022-10-20T20:24:08.796Z,1.10
2022-10-20T20:26:38.497Z,1.17
2022-10-20T20:29:06.958Z,1.37
2022-10-20T20:31:35.577Z,1.20
2022-10-20T20:34:03.819Z,1.17
2022-10-20T20:36:32.454Z,1.00
2022-10-20T20:39:02.221Z,1.27
2022-10-20T20:41:31.285Z,1.27
2022-10-20T20:44:02.961Z,1.03
2022-10-20T20:46:34.310Z,1.10
2022-10-20T20:49:02.992Z,0.87
2022-10-20T20:51:33.697Z,1.10
2022-10-20T20:54:04.130Z,1.10
2022-10-20T20:56:32.478Z,1.07
2022-10-20T20:59:00.718Z,1.13
2022-10-20T21:01:31.701Z,1.10
2022-10-20T21:04:02.047Z,1.17
2022-10-20T21:06:49.773Z,0.87
2022-10-20T21:09:20.757Z,0.83
2022-10-20T21:11:49.894Z,0.97
2022-10-20T21:14:18.123Z,0.90
2022-10-20T21:16:46.655Z,0.83
2022-10-20T21:19:15.060Z,0.90
2022-10-20T21:21:47.082Z,1.07
2022-10-20T21:24:15.679Z,1.20
2022-10-20T21:26:46.162Z,0.80
2022-10-20T21:29:14.415Z,1.33
2022-10-20T21:31:42.648Z,0.83
2022-10-20T21:34:12.460Z,1.20
2022-10-20T21:36:41.140Z,1.10
2022-10-20T21:39:12.262Z,0.83
2022-10-20T21:41:41.856Z,0.70
2022-10-20T21:44:13.423Z,0.77
2022-10-20T21:46:44.018Z,1.00
2022-10-20T21:49:14.264Z,0.67
2022-10-20T21:51:44.170Z,0.87
2022-10-20T21:54:16.012Z,0.87
2022-10-20T21:56:46.914Z,0.77
2022-10-20T21:59:19.940Z,0.90
2022-10-20T22:01:49.104Z,0.93
2022-10-20T22:04:17.947Z,0.80
2022-10-20T22:06:46.219Z,0.73
2022-10-20T22:09:15.107Z,1.17
2022-10-20T22:11:45.670Z,0.80
2022-10-20T22:14:13.894Z,0.90
2022-10-20T22:16:43.839Z,0.80
2022-10-20T22:19:14.777Z,1.27
2022-10-20T22:21:45.510Z,0.93
2022-10-20T22:24:14.407Z,0.90
2022-10-20T22:26:43.324Z,1.00
2022-10-20T22:29:12.418Z,0.80
2022-10-20T22:31:41.727Z,0.80
2022-10-20T22:34:12.198Z,1.03
2022-10-20T22:36:40.857Z,0.97
2022-10-20T22:39:09.621Z,1.20
2022-10-20T22:41:38.257Z,1.00
2022-10-20T22:44:06.940Z,0.90
2022-10-20T22:46:35.532Z,1.00
2022-10-20T22:49:03.847Z,1.13
2022-10-20T22:51:33.438Z,0.73
2022-10-20T22:54:01.685Z,1.20
2022-10-20T22:56:29.933Z,1.13
2022-10-20T22:58:58.120Z,0.80
2022-10-20T23:01:26.587Z,0.87
2022-10-20T23:03:55.328Z,0.80
2022-10-20T23:06:25.316Z,1.17
2022-10-20T23:08:57.000Z,0.80
2022-10-20T23:11:25.837Z,0.80
2022-10-20T23:13:54.079Z,0.63
2022-10-20T23:18:58.066Z,0.80
2022-10-20T23:21:26.546Z,0.87
2022-10-20T23:23:58.795Z,1.10
2022-10-20T23:26:27.012Z,0.80
2022-10-20T23:28:55.301Z,1.07
2022-10-20T23:31:24.073Z,1.10
2022-10-20T23:33:56.386Z,1.00
2022-10-20T23:36:24.897Z,0.90
2022-10-20T23:38:53.192Z,1.30
2022-10-20T23:41:22.872Z,0.93
2022-10-20T23:43:51.090Z,1.13
2022-10-20T23:46:19.365Z,1.20
2022-10-20T23:48:47.583Z,1.10
2022-10-20T23:51:15.816Z,0.83
2022-10-20T23:53:44.064Z,1.00
2022-10-20T23:56:12.272Z,0.87
2022-10-20T23:58:41.861Z,1.00
